Honest Sky — 3FAA5 — position and weather

sailwx.info

Track history (hours):
 
Tides and Currents Weather Stations Pressure Air Temp Water Temp Dewpoint Dewpoint Depression Visibility Wind Speed Wind Dir Waves Ship Positions

Honest Sky

Last reported at 2017-Aug-17 11:18 UTC. Time now 2017-Oct-17 20:22 UTC.
Position S 25°42' E 154°04'.
Warning: this ship's position is months out of date.

Length 235 m; draft 14.1 m.

Type: Ship. MMSI: 354436000.

Date/timePositionNaut miles runAvg speedWind from/ knotsBaromVisibWave heightAir tempDewpointWater temp
2017-Aug-17 11:18S 25°42' E 154°04'3 9.9
2017-Aug-17 11:00S 25°45' E 154°04'5 9.9
2017-Aug-17 10:30S 25°49' E 154°04'5 9.9
2017-Aug-17 10:00S 25°54' E 154°04'5 9.9
2017-Aug-17 09:30S 25°59' E 154°04'5 9.7
2017-Aug-17 09:00S 26°04' E 154°04'5 9.7
2017-Aug-17 08:30S 26°09' E 154°04'5 9.5
2017-Aug-17 08:00S 26°14' E 154°04'5 9.4
2017-Aug-17 07:30S 26°18' E 154°04'8310.0
2017-Aug-16 23:14S 27°41' E 154°04'3 9.8
2017-Aug-16 22:56S 27°44' E 154°04'5 9.8
2017-Aug-16 22:28S 27°49' E 154°04'11 9.7
2017-Aug-16 21:22S 27°59' E 154°04'7 9.7
2017-Aug-16 20:37S 28°06' E 154°04'1 9.8
2017-Aug-16 20:30S 28°08' E 154°04'5 9.7
2017-Aug-16 20:00S 28°12' E 154°04'5 9.3
2017-Aug-16 19:30S 28°17' E 154°04'5 9.3
2017-Aug-16 19:00S 28°22' E 154°04'5 9.3
2017-Aug-16 18:30S 28°26' E 154°04'5 9.3
2017-Aug-16 18:00S 28°31' E 154°04'5 9.4
2017-Aug-16 17:30S 28°35' E 154°02'5 9.0
2017-Aug-16 17:00S 28°40' E 154°01'4 8.8
2017-Aug-16 16:31S 28°44' E 153°60'4 8.6
2017-Aug-16 16:00S 28°48' E 153°59'4 8.5
2017-Aug-16 15:30S 28°53' E 153°58'4 8.4
2017-Aug-16 15:00S 28°57' E 153°57'4 8.4
2017-Aug-16 14:30S 29°01' E 153°56'17710.0
2017-Aug-15 20:48S 31°52' E 153°06'13 9.4
2017-Aug-15 19:25S 32°04' E 153°01'510.0
2017-Aug-15 18:54S 32°09' E 152°59'410.8
2017-Aug-15 18:29S 32°14' E 152°58'511.0
2017-Aug-15 18:00S 32°19' E 152°56'611.2
2017-Aug-15 17:30S 32°24' E 152°54'611.2
2017-Aug-15 17:00S 32°29' E 152°51'611.1
2017-Aug-15 16:30S 32°34' E 152°48'510.8
2017-Aug-15 16:00S 32°37' E 152°43'611.5
2017-Aug-15 15:30S 32°40' E 152°37'611.3
2017-Aug-15 15:00S 32°43' E 152°31'611.2
2017-Aug-15 14:30S 32°45' E 152°25'611.1
2017-Aug-15 14:00S 32°48' E 152°19'510.9
2017-Aug-15 13:30S 32°51' E 152°14'510.7
2017-Aug-15 13:00S 32°53' E 152°08'510.8
2017-Aug-15 12:30S 32°54' E 152°02'510.6
2017-Aug-15 12:00S 32°55' E 151°55'5 9.3
2017-Aug-15 11:30S 32°56' E 151°50'3 5.5
2017-Aug-15 11:00S 32°55' E 151°47'2 3.5
2017-Aug-15 10:30S 32°54' E 151°46'0 0.5
2017-Aug-15 09:56S 32°53' E 151°46'0 0.0
2017-Aug-15 09:23S 32°53' E 151°46'0 0.0
2017-Aug-15 07:56S 32°53' E 151°46'0 0.0
2017-Aug-15 07:14S 32°53' E 151°46'0 0.2
2017-Aug-15 06:56S 32°53' E 151°46'0 0.1
2017-Aug-15 06:29S 32°53' E 151°46'0 0.0
2017-Aug-15 05:56S 32°53' E 151°46'0 0.0
2017-Aug-15 05:26S 32°53' E 151°46'0 0.0
2017-Aug-15 03:56S 32°53' E 151°46'0 0.0
2017-Aug-15 03:29S 32°53' E 151°46'0 0.1
2017-Aug-15 02:50S 32°53' E 151°46'0 0.1
2017-Aug-15 02:29S 32°53' E 151°46'0 0.0
2017-Aug-15 01:59S 32°53' E 151°46'0 0.0
2017-Aug-15 01:17S 32°53' E 151°46'0 0.0
2017-Aug-15 00:59S 32°53' E 151°46'0 0.1
2017-Aug-15 00:26S 32°53' E 151°46'0 0.1
2017-Aug-14 23:56S 32°53' E 151°46'0 0.0
2017-Aug-14 23:29S 32°53' E 151°46'0 0.0
2017-Aug-14 22:59S 32°53' E 151°46'0 0.0
2017-Aug-14 22:26S 32°53' E 151°46'0 0.0
2017-Aug-14 21:59S 32°53' E 151°46'0 0.0
2017-Aug-14 21:29S 32°53' E 151°46'0 0.0
2017-Aug-14 20:59S 32°53' E 151°46'0 0.1
2017-Aug-14 20:29S 32°53' E 151°46'0 0.1
2017-Aug-14 19:53S 32°53' E 151°46'0 0.1
2017-Aug-14 19:29S 32°53' E 151°46'0 0.1
2017-Aug-14 18:59S 32°53' E 151°46'0 0.0
2017-Aug-14 18:29S 32°53' E 151°46'0 0.0
2017-Aug-14 17:59S 32°53' E 151°46'0 0.0
2017-Aug-14 17:29S 32°53' E 151°46'0 0.2
2017-Aug-14 17:01S 32°53' E 151°46'2 3.9
2017-Aug-14 16:30S 32°55' E 151°47'4 7.8
2017-Aug-14 16:01S 32°57' E 151°51'3 6.0
2017-Aug-14 15:31S 32°59' E 151°53'3 6.1
2017-Aug-14 15:01S 33°02' E 151°56'3 6.7
2017-Aug-14 14:31S 33°04' E 151°58'3 6.9
2017-Aug-14 14:01S 33°07' E 152°01'3 6.7
2017-Aug-14 13:31S 33°10' E 152°03'2 4.3
2017-Aug-14 13:00S 33°11' E 152°05'2 3.0
2017-Aug-14 12:28S 33°11' E 152°07'1 1.4
2017-Aug-14 11:55S 33°11' E 152°07'1 1.4
2017-Aug-14 11:28S 33°10' E 152°08'1 1.3
2017-Aug-14 10:58S 33°10' E 152°09'1 1.1
2017-Aug-14 10:25S 33°10' E 152°09'1 1.0
2017-Aug-14 09:52S 33°10' E 152°10'0 0.8
2017-Aug-14 09:28S 33°10' E 152°10'0 0.8
2017-Aug-14 08:55S 33°10' E 152°11'0 0.9
2017-Aug-14 08:28S 33°10' E 152°11'0 0.9
2017-Aug-14 07:58S 33°11' E 152°12'0 0.9
2017-Aug-14 07:28S 33°11' E 152°12'0 0.9
2017-Aug-14 06:58S 33°12' E 152°12'0 0.8
2017-Aug-14 06:28S 33°12' E 152°12'0 0.8
2017-Aug-14 05:58S 33°12' E 152°12'0 0.6
2017-Aug-14 05:25S 33°13' E 152°12'0 0.1
2017-Aug-14 04:49S 33°13' E 152°12'0 0.2
2017-Aug-14 04:28S 33°13' E 152°12'0 0.1
2017-Aug-14 03:55S 33°13' E 152°12'0 0.2
2017-Aug-14 03:28S 33°13' E 152°12'0 0.2
2017-Aug-14 02:58S 33°13' E 152°12'0 0.3
2017-Aug-14 02:28S 33°13' E 152°12'0 0.3
2017-Aug-14 01:55S 33°12' E 152°12'0 0.3
2017-Aug-14 01:25S 33°12' E 152°12'0 0.5
2017-Aug-14 00:55S 33°12' E 152°12'1 1.9
2017-Aug-14 00:30S 33°12' E 152°11'3 6.5
2017-Aug-14 00:01S 33°10' E 152°08'1 1.0
2017-Aug-13 23:28S 33°11' E 152°08'0 0.3
2017-Aug-13 22:43S 33°11' E 152°08'0 0.2
2017-Aug-13 22:25S 33°11' E 152°08'0 0.2
2017-Aug-13 21:58S 33°11' E 152°07'0 0.2
2017-Aug-13 21:25S 33°11' E 152°07'0 0.5
2017-Aug-13 20:58S 33°11' E 152°07'0 0.4
2017-Aug-13 20:25S 33°11' E 152°07'0 0.2
2017-Aug-13 19:31S 33°11' E 152°08'0 0.3
2017-Aug-13 19:07S 33°12' E 152°08'0 0.4
2017-Aug-13 18:43S 33°12' E 152°08'0 0.4
2017-Aug-13 18:25S 33°12' E 152°08'0 0.4
2017-Aug-13 17:58S 33°12' E 152°08'0 0.5
2017-Aug-13 17:28S 33°12' E 152°08'0 0.4
2017-Aug-13 16:55S 33°12' E 152°09'0 0.3
2017-Aug-13 16:25S 33°12' E 152°09'0 0.5
2017-Aug-13 15:52S 33°12' E 152°09'0 0.3
2017-Aug-13 14:58S 33°12' E 152°09'3 6.6
2017-Aug-13 14:31S 33°11' E 152°05'3 5.2
2017-Aug-13 14:01S 33°13' E 152°03'0 0.2
2017-Aug-13 13:30S 33°13' E 152°03'0 0.4
2017-Aug-13 13:00S 33°13' E 152°03'0 0.2
2017-Aug-13 12:21S 33°13' E 152°04'1 2.7
2017-Aug-13 12:00S 33°12' E 152°03'4 8.7
2017-Aug-13 11:30S 33°09' E 151°60'3 6.0
2017-Aug-13 11:00S 33°07' E 151°57'1 1.4
2017-Aug-13 10:26S 33°07' E 151°58'1 1.9
2017-Aug-13 09:50S 33°07' E 151°59'1 1.7
2017-Aug-13 09:26S 33°07' E 151°60'1 1.7
2017-Aug-13 08:59S 33°07' E 152°01'1 1.9
2017-Aug-13 08:29S 33°07' E 152°02'1 1.1
2017-Aug-13 07:56S 33°07' E 152°02'2 5.3
2017-Aug-13 07:30S 33°05' E 152°02'3 6.3
2017-Aug-13 07:00S 33°03' E 151°59'2 4.7
2017-Aug-13 06:30S 33°00' E 151°59'1 1.7
2017-Aug-13 05:58S 33°01' E 151°60'1 1.7
2017-Aug-13 05:30S 33°01' E 152°01'1 1.7
2017-Aug-13 05:00S 33°01' E 152°02'1 1.9
2017-Aug-13 04:30S 33°01' E 152°03'1 1.6
2017-Aug-13 04:00S 33°02' E 152°04'1 1.5
2017-Aug-13 03:30S 33°02' E 152°05'2 5.0
2017-Aug-13 03:00S 33°00' E 152°07'5 9.1
2017-Aug-13 02:30S 32°58' E 152°11'4 8.4
2017-Aug-13 02:00S 32°55' E 152°15'1 2.0
2017-Aug-13 01:30S 32°56' E 152°16'1 1.8
2017-Aug-13 01:00S 32°57' E 152°17'1 1.8
2017-Aug-13 00:30S 32°57' E 152°17'1 1.7
2017-Aug-13 00:00S 32°58' E 152°18'1 1.8
2017-Aug-12 23:30S 32°59' E 152°18'1 2.0
2017-Aug-12 23:00S 33°00' E 152°18'1 1.8
2017-Aug-12 22:30S 33°01' E 152°18'1 1.3
2017-Aug-12 22:00S 33°02' E 152°18'1 1.4
2017-Aug-12 21:30S 33°01' E 152°19'4 8.4
2017-Aug-12 21:00S 33°01' E 152°24'5 9.3
2017-Aug-12 20:30S 33°00' E 152°29'3 6.2
2017-Aug-12 19:58S 32°59' E 152°33'1 1.4
2017-Aug-12 19:30S 32°60' E 152°32'1 1.2
2017-Aug-12 19:00S 33°00' E 152°32'1 1.3
2017-Aug-12 18:30S 33°01' E 152°31'1 1.2
2017-Aug-12 18:00S 33°01' E 152°31'1 1.2
2017-Aug-12 17:30S 33°01' E 152°30'1 1.1
2017-Aug-12 17:00S 33°02' E 152°30'1 1.2
2017-Aug-12 16:30S 33°02' E 152°29'1 1.2
2017-Aug-12 15:42S 33°02' E 152°28'1 1.3
2017-Aug-12 15:18S 33°02' E 152°27'0 1.4
2017-Aug-12 15:00S 33°02' E 152°27'1 1.5
2017-Aug-12 14:24S 33°02' E 152°26'1 1.5
2017-Aug-12 14:00S 33°02' E 152°25'1 1.3
2017-Aug-12 13:30S 33°02' E 152°24'1 1.2
2017-Aug-12 12:54S 33°02' E 152°23'2 1.1
2017-Aug-12 11:12S 33°02' E 152°21'0 1.3
2017-Aug-12 11:00S 33°02' E 152°21'1 1.2
2017-Aug-12 10:30S 33°01' E 152°20'1 1.1
2017-Aug-12 10:00S 33°01' E 152°20'1 1.2
2017-Aug-12 09:30S 33°02' E 152°19'1 1.1
2017-Aug-12 09:00S 33°02' E 152°18'1 1.0
2017-Aug-12 08:30S 33°02' E 152°18'1 1.1
2017-Aug-12 08:00S 33°02' E 152°17'1 1.0
2017-Aug-12 07:24S 33°02' E 152°17'0 0.9
2017-Aug-12 07:00S 33°03' E 152°16'0 1.0
2017-Aug-12 06:30S 33°03' E 152°16'1 1.1
2017-Aug-12 06:00S 33°03' E 152°15'1 1.0
2017-Aug-12 05:30S 33°04' E 152°15'0 0.8
2017-Aug-12 05:00S 33°04' E 152°15'0 0.8
2017-Aug-12 04:30S 33°04' E 152°14'0 0.8
2017-Aug-12 03:57S 33°04' E 152°14'0 0.9
2017-Aug-12 03:30S 33°05' E 152°13'0 0.8
2017-Aug-12 03:00S 33°05' E 152°13'0 0.7
2017-Aug-12 02:30S 33°05' E 152°13'0 0.6
2017-Aug-12 02:00S 33°05' E 152°12'0 0.9
2017-Aug-12 01:30S 33°05' E 152°12'0 0.8
2017-Aug-12 01:00S 33°06' E 152°11'0 0.6
2017-Aug-12 00:30S 33°06' E 152°11'0 0.7
2017-Aug-12 00:00S 33°05' E 152°11'1 0.9
2017-Aug-11 23:24S 33°05' E 152°10'0 0.8
2017-Aug-11 23:00S 33°05' E 152°10'1 1.0
2017-Aug-11 22:06S 33°04' E 152°09'0 0.9
2017-Aug-11 22:00S 33°04' E 152°09'0 0.9
2017-Aug-11 21:30S 33°04' E 152°08'0 1.0
2017-Aug-11 21:00S 33°04' E 152°08'0 0.8
2017-Aug-11 20:30S 33°03' E 152°08'0 0.8
2017-Aug-11 20:00S 33°03' E 152°07'0 0.5
2017-Aug-11 19:30S 33°03' E 152°07'0 0.7
2017-Aug-11 19:00S 33°03' E 152°07'0 0.6
2017-Aug-11 18:30S 33°03' E 152°06'0 0.5
2017-Aug-11 18:00S 33°03' E 152°06'0 0.5
2017-Aug-11 17:30S 33°03' E 152°06'0 0.6
2017-Aug-11 17:00S 33°03' E 152°06'0 0.7
2017-Aug-11 16:30S 33°03' E 152°05'0 0.7
2017-Aug-11 16:00S 33°02' E 152°05'0 0.8
2017-Aug-11 15:30S 33°02' E 152°04'0 0.8
2017-Aug-11 15:00S 33°02' E 152°04'0 0.9
2017-Aug-11 14:30S 33°02' E 152°03'1 1.2
2017-Aug-11 13:30S 33°02' E 152°02'3 5.4
2017-Aug-11 13:00S 33°01' E 151°59'1 1.2
2017-Aug-11 12:30S 33°01' E 151°58'1 1.4
2017-Aug-11 12:00S 33°01' E 151°59'1 1.5
2017-Aug-11 11:30S 33°01' E 151°60'1 1.3
2017-Aug-11 11:00S 33°01' E 152°01'1 1.3
2017-Aug-11 10:30S 33°01' E 152°02'1 1.3
2017-Aug-11 10:00S 33°01' E 152°02'1 1.1
2017-Aug-11 09:30S 33°01' E 152°03'1 1.1
2017-Aug-11 09:00S 33°01' E 152°04'1 1.2
2017-Aug-11 08:30S 33°01' E 152°04'1 1.5
2017-Aug-11 08:00S 33°01' E 152°05'1 2.1
2017-Aug-11 07:31S 33°00' E 152°06'2 4.6
2017-Aug-11 07:00S 32°58' E 152°07'0 0.8
2017-Aug-11 06:30S 32°58' E 152°08'0 0.8
2017-Aug-11 06:00S 32°59' E 152°08'0 0.8
2017-Aug-11 05:30S 32°59' E 152°08'0 0.8
2017-Aug-11 05:00S 32°59' E 152°08'0 0.9
2017-Aug-11 04:30S 32°60' E 152°07'0 0.8
2017-Aug-11 04:00S 32°60' E 152°07'0 0.9
2017-Aug-11 03:30S 32°60' E 152°06'0 0.7
2017-Aug-11 03:00S 32°59' E 152°06'0 0.7
2017-Aug-11 02:30S 32°59' E 152°06'0 0.5
2017-Aug-11 02:00S 32°59' E 152°06'0 0.3
2017-Aug-11 01:30S 32°59' E 152°05'0 0.3
2017-Aug-11 01:00S 32°59' E 152°06'0 0.3
2017-Aug-11 00:30S 32°59' E 152°06'0 0.3
2017-Aug-11 00:00S 32°59' E 152°05'0 0.4
2017-Aug-10 23:30S 32°59' E 152°05'0 0.6
2017-Aug-10 23:00S 32°60' E 152°05'0 0.7
2017-Aug-10 22:30S 32°60' E 152°05'1 1.0
2017-Aug-10 22:00S 33°00' E 152°04'1 1.0
2017-Aug-10 21:30S 33°00' E 152°03'1 1.9
2017-Aug-10 21:00S 32°60' E 152°02'3 5.9
2017-Aug-10 20:30S 32°58' E 151°59'4 7.8
2017-Aug-10 20:00S 32°55' E 152°02'612.3
2017-Aug-10 19:30S 32°53' E 152°09'713.5
2017-Aug-10 19:00S 32°50' E 152°16'713.3
2017-Aug-10 18:30S 32°46' E 152°23'713.3
2017-Aug-10 18:00S 32°43' E 152°30'713.1
2017-Aug-10 17:30S 32°40' E 152°37'713.4
2017-Aug-10 17:00S 32°37' E 152°44'713.0
2017-Aug-10 16:31S 32°33' E 152°50'713.9
2017-Aug-10 16:00S 32°26' E 152°53'713.9
2017-Aug-10 15:30S 32°20' E 152°55'713.5
2017-Aug-10 14:59S 32°13' E 152°57'1813.6
2017-Aug-10 13:39S 31°56' E 153°04'414.4
2017-Aug-10 13:23S 31°52' E 153°06'614.9
2017-Aug-10 13:00S 31°47' E 153°08'915.3
2017-Aug-10 12:24S 31°38' E 153°11'715.1
2017-Aug-10 11:57S 31°32' E 153°14'  
Track history (hours):
 
Tides and Currents Weather Stations Pressure Air Temp Water Temp Dewpoint Dewpoint Depression Visibility Wind Speed Wind Dir Waves Ship Positions

Honest Sky

Last reported at 2017-Aug-17 11:18 UTC. Time now 2017-Oct-17 20:22 UTC.
Position S 25°42' E 154°04'.
Warning: this ship's position is months out of date.

Length 235 m; draft 14.1 m.

Type: Ship. MMSI: 354436000.

Date/timePositionNaut miles runAvg speedWind from/ knotsBaromVisibWave heightAir tempDewpointWater temp
2017-Aug-17 11:18S 25°42' E 154°04'3 9.9
2017-Aug-17 11:00S 25°45' E 154°04'5 9.9
2017-Aug-17 10:30S 25°49' E 154°04'5 9.9
2017-Aug-17 10:00S 25°54' E 154°04'5 9.9
2017-Aug-17 09:30S 25°59' E 154°04'5 9.7
2017-Aug-17 09:00S 26°04' E 154°04'5 9.7
2017-Aug-17 08:30S 26°09' E 154°04'5 9.5
2017-Aug-17 08:00S 26°14' E 154°04'5 9.4
2017-Aug-17 07:30S 26°18' E 154°04'8310.0
2017-Aug-16 23:14S 27°41' E 154°04'3 9.8
2017-Aug-16 22:56S 27°44' E 154°04'5 9.8
2017-Aug-16 22:28S 27°49' E 154°04'11 9.7
2017-Aug-16 21:22S 27°59' E 154°04'7 9.7
2017-Aug-16 20:37S 28°06' E 154°04'1 9.8
2017-Aug-16 20:30S 28°08' E 154°04'5 9.7
2017-Aug-16 20:00S 28°12' E 154°04'5 9.3
2017-Aug-16 19:30S 28°17' E 154°04'5 9.3
2017-Aug-16 19:00S 28°22' E 154°04'5 9.3
2017-Aug-16 18:30S 28°26' E 154°04'5 9.3
2017-Aug-16 18:00S 28°31' E 154°04'5 9.4
2017-Aug-16 17:30S 28°35' E 154°02'5 9.0
2017-Aug-16 17:00S 28°40' E 154°01'4 8.8
2017-Aug-16 16:31S 28°44' E 153°60'4 8.6
2017-Aug-16 16:00S 28°48' E 153°59'4 8.5
2017-Aug-16 15:30S 28°53' E 153°58'4 8.4
2017-Aug-16 15:00S 28°57' E 153°57'4 8.4
2017-Aug-16 14:30S 29°01' E 153°56'17710.0
2017-Aug-15 20:48S 31°52' E 153°06'13 9.4
2017-Aug-15 19:25S 32°04' E 153°01'510.0
2017-Aug-15 18:54S 32°09' E 152°59'410.8
2017-Aug-15 18:29S 32°14' E 152°58'511.0
2017-Aug-15 18:00S 32°19' E 152°56'611.2
2017-Aug-15 17:30S 32°24' E 152°54'611.2
2017-Aug-15 17:00S 32°29' E 152°51'611.1
2017-Aug-15 16:30S 32°34' E 152°48'510.8
2017-Aug-15 16:00S 32°37' E 152°43'611.5
2017-Aug-15 15:30S 32°40' E 152°37'611.3
2017-Aug-15 15:00S 32°43' E 152°31'611.2
2017-Aug-15 14:30S 32°45' E 152°25'611.1
2017-Aug-15 14:00S 32°48' E 152°19'510.9
2017-Aug-15 13:30S 32°51' E 152°14'510.7
2017-Aug-15 13:00S 32°53' E 152°08'510.8
2017-Aug-15 12:30S 32°54' E 152°02'510.6
2017-Aug-15 12:00S 32°55' E 151°55'5 9.3
2017-Aug-15 11:30S 32°56' E 151°50'3 5.5
2017-Aug-15 11:00S 32°55' E 151°47'2 3.5
2017-Aug-15 10:30S 32°54' E 151°46'0 0.5
2017-Aug-15 09:56S 32°53' E 151°46'0 0.0
2017-Aug-15 09:23S 32°53' E 151°46'0 0.0
2017-Aug-15 07:56S 32°53' E 151°46'0 0.0
2017-Aug-15 07:14S 32°53' E 151°46'0 0.2
2017-Aug-15 06:56S 32°53' E 151°46'0 0.1
2017-Aug-15 06:29S 32°53' E 151°46'0 0.0
2017-Aug-15 05:56S 32°53' E 151°46'0 0.0
2017-Aug-15 05:26S 32°53' E 151°46'0 0.0
2017-Aug-15 03:56S 32°53' E 151°46'0 0.0
2017-Aug-15 03:29S 32°53' E 151°46'0 0.1
2017-Aug-15 02:50S 32°53' E 151°46'0 0.1
2017-Aug-15 02:29S 32°53' E 151°46'0 0.0
2017-Aug-15 01:59S 32°53' E 151°46'0 0.0
2017-Aug-15 01:17S 32°53' E 151°46'0 0.0
2017-Aug-15 00:59S 32°53' E 151°46'0 0.1
2017-Aug-15 00:26S 32°53' E 151°46'0 0.1
2017-Aug-14 23:56S 32°53' E 151°46'0 0.0
2017-Aug-14 23:29S 32°53' E 151°46'0 0.0
2017-Aug-14 22:59S 32°53' E 151°46'0 0.0
2017-Aug-14 22:26S 32°53' E 151°46'0 0.0
2017-Aug-14 21:59S 32°53' E 151°46'0 0.0
2017-Aug-14 21:29S 32°53' E 151°46'0 0.0
2017-Aug-14 20:59S 32°53' E 151°46'0 0.1
2017-Aug-14 20:29S 32°53' E 151°46'0 0.1
2017-Aug-14 19:53S 32°53' E 151°46'0 0.1
2017-Aug-14 19:29S 32°53' E 151°46'0 0.1
2017-Aug-14 18:59S 32°53' E 151°46'0 0.0
2017-Aug-14 18:29S 32°53' E 151°46'0 0.0
2017-Aug-14 17:59S 32°53' E 151°46'0 0.0
2017-Aug-14 17:29S 32°53' E 151°46'0 0.2
2017-Aug-14 17:01S 32°53' E 151°46'2 3.9
2017-Aug-14 16:30S 32°55' E 151°47'4 7.8
2017-Aug-14 16:01S 32°57' E 151°51'3 6.0
2017-Aug-14 15:31S 32°59' E 151°53'3 6.1
2017-Aug-14 15:01S 33°02' E 151°56'3 6.7
2017-Aug-14 14:31S 33°04' E 151°58'3 6.9
2017-Aug-14 14:01S 33°07' E 152°01'3 6.7
2017-Aug-14 13:31S 33°10' E 152°03'2 4.3
2017-Aug-14 13:00S 33°11' E 152°05'2 3.0
2017-Aug-14 12:28S 33°11' E 152°07'1 1.4
2017-Aug-14 11:55S 33°11' E 152°07'1 1.4
2017-Aug-14 11:28S 33°10' E 152°08'1 1.3
2017-Aug-14 10:58S 33°10' E 152°09'1 1.1
2017-Aug-14 10:25S 33°10' E 152°09'1 1.0
2017-Aug-14 09:52S 33°10' E 152°10'0 0.8
2017-Aug-14 09:28S 33°10' E 152°10'0 0.8
2017-Aug-14 08:55S 33°10' E 152°11'0 0.9
2017-Aug-14 08:28S 33°10' E 152°11'0 0.9
2017-Aug-14 07:58S 33°11' E 152°12'0 0.9
2017-Aug-14 07:28S 33°11' E 152°12'0 0.9
2017-Aug-14 06:58S 33°12' E 152°12'0 0.8
2017-Aug-14 06:28S 33°12' E 152°12'0 0.8
2017-Aug-14 05:58S 33°12' E 152°12'0 0.6
2017-Aug-14 05:25S 33°13' E 152°12'0 0.1
2017-Aug-14 04:49S 33°13' E 152°12'0 0.2
2017-Aug-14 04:28S 33°13' E 152°12'0 0.1
2017-Aug-14 03:55S 33°13' E 152°12'0 0.2
2017-Aug-14 03:28S 33°13' E 152°12'0 0.2
2017-Aug-14 02:58S 33°13' E 152°12'0 0.3
2017-Aug-14 02:28S 33°13' E 152°12'0 0.3
2017-Aug-14 01:55S 33°12' E 152°12'0 0.3
2017-Aug-14 01:25S 33°12' E 152°12'0 0.5
2017-Aug-14 00:55S 33°12' E 152°12'1 1.9
2017-Aug-14 00:30S 33°12' E 152°11'3 6.5
2017-Aug-14 00:01S 33°10' E 152°08'1 1.0
2017-Aug-13 23:28S 33°11' E 152°08'0 0.3
2017-Aug-13 22:43S 33°11' E 152°08'0 0.2
2017-Aug-13 22:25S 33°11' E 152°08'0 0.2
2017-Aug-13 21:58S 33°11' E 152°07'0 0.2
2017-Aug-13 21:25S 33°11' E 152°07'0 0.5
2017-Aug-13 20:58S 33°11' E 152°07'0 0.4
2017-Aug-13 20:25S 33°11' E 152°07'0 0.2
2017-Aug-13 19:31S 33°11' E 152°08'0 0.3
2017-Aug-13 19:07S 33°12' E 152°08'0 0.4
2017-Aug-13 18:43S 33°12' E 152°08'0 0.4
2017-Aug-13 18:25S 33°12' E 152°08'0 0.4
2017-Aug-13 17:58S 33°12' E 152°08'0 0.5
2017-Aug-13 17:28S 33°12' E 152°08'0 0.4
2017-Aug-13 16:55S 33°12' E 152°09'0 0.3
2017-Aug-13 16:25S 33°12' E 152°09'0 0.5
2017-Aug-13 15:52S 33°12' E 152°09'0 0.3
2017-Aug-13 14:58S 33°12' E 152°09'3 6.6
2017-Aug-13 14:31S 33°11' E 152°05'3 5.2
2017-Aug-13 14:01S 33°13' E 152°03'0 0.2
2017-Aug-13 13:30S 33°13' E 152°03'0 0.4
2017-Aug-13 13:00S 33°13' E 152°03'0 0.2
2017-Aug-13 12:21S 33°13' E 152°04'1 2.7
2017-Aug-13 12:00S 33°12' E 152°03'4 8.7
2017-Aug-13 11:30S 33°09' E 151°60'3 6.0
2017-Aug-13 11:00S 33°07' E 151°57'1 1.4
2017-Aug-13 10:26S 33°07' E 151°58'1 1.9
2017-Aug-13 09:50S 33°07' E 151°59'1 1.7
2017-Aug-13 09:26S 33°07' E 151°60'1 1.7
2017-Aug-13 08:59S 33°07' E 152°01'1 1.9
2017-Aug-13 08:29S 33°07' E 152°02'1 1.1
2017-Aug-13 07:56S 33°07' E 152°02'2 5.3
2017-Aug-13 07:30S 33°05' E 152°02'3 6.3
2017-Aug-13 07:00S 33°03' E 151°59'2 4.7
2017-Aug-13 06:30S 33°00' E 151°59'1 1.7
2017-Aug-13 05:58S 33°01' E 151°60'1 1.7
2017-Aug-13 05:30S 33°01' E 152°01'1 1.7
2017-Aug-13 05:00S 33°01' E 152°02'1 1.9
2017-Aug-13 04:30S 33°01' E 152°03'1 1.6
2017-Aug-13 04:00S 33°02' E 152°04'1 1.5
2017-Aug-13 03:30S 33°02' E 152°05'2 5.0
2017-Aug-13 03:00S 33°00' E 152°07'5 9.1
2017-Aug-13 02:30S 32°58' E 152°11'4 8.4
2017-Aug-13 02:00S 32°55' E 152°15'1 2.0
2017-Aug-13 01:30S 32°56' E 152°16'1 1.8
2017-Aug-13 01:00S 32°57' E 152°17'1 1.8
2017-Aug-13 00:30S 32°57' E 152°17'1 1.7
2017-Aug-13 00:00S 32°58' E 152°18'1 1.8
2017-Aug-12 23:30S 32°59' E 152°18'1 2.0
2017-Aug-12 23:00S 33°00' E 152°18'1 1.8
2017-Aug-12 22:30S 33°01' E 152°18'1 1.3
2017-Aug-12 22:00S 33°02' E 152°18'1 1.4
2017-Aug-12 21:30S 33°01' E 152°19'4 8.4
2017-Aug-12 21:00S 33°01' E 152°24'5 9.3
2017-Aug-12 20:30S 33°00' E 152°29'3 6.2
2017-Aug-12 19:58S 32°59' E 152°33'1 1.4
2017-Aug-12 19:30S 32°60' E 152°32'1 1.2
2017-Aug-12 19:00S 33°00' E 152°32'1 1.3
2017-Aug-12 18:30S 33°01' E 152°31'1 1.2
2017-Aug-12 18:00S 33°01' E 152°31'1 1.2
2017-Aug-12 17:30S 33°01' E 152°30'1 1.1
2017-Aug-12 17:00S 33°02' E 152°30'1 1.2
2017-Aug-12 16:30S 33°02' E 152°29'1 1.2
2017-Aug-12 15:42S 33°02' E 152°28'1 1.3
2017-Aug-12 15:18S 33°02' E 152°27'0 1.4
2017-Aug-12 15:00S 33°02' E 152°27'1 1.5
2017-Aug-12 14:24S 33°02' E 152°26'1 1.5
2017-Aug-12 14:00S 33°02' E 152°25'1 1.3
2017-Aug-12 13:30S 33°02' E 152°24'1 1.2
2017-Aug-12 12:54S 33°02' E 152°23'2 1.1
2017-Aug-12 11:12S 33°02' E 152°21'0 1.3
2017-Aug-12 11:00S 33°02' E 152°21'1 1.2
2017-Aug-12 10:30S 33°01' E 152°20'1 1.1
2017-Aug-12 10:00S 33°01' E 152°20'1 1.2
2017-Aug-12 09:30S 33°02' E 152°19'1 1.1
2017-Aug-12 09:00S 33°02' E 152°18'1 1.0
2017-Aug-12 08:30S 33°02' E 152°18'1 1.1
2017-Aug-12 08:00S 33°02' E 152°17'1 1.0
2017-Aug-12 07:24S 33°02' E 152°17'0 0.9
2017-Aug-12 07:00S 33°03' E 152°16'0 1.0
2017-Aug-12 06:30S 33°03' E 152°16'1 1.1
2017-Aug-12 06:00S 33°03' E 152°15'1 1.0
2017-Aug-12 05:30S 33°04' E 152°15'0 0.8
2017-Aug-12 05:00S 33°04' E 152°15'0 0.8
2017-Aug-12 04:30S 33°04' E 152°14'0 0.8
2017-Aug-12 03:57S 33°04' E 152°14'0 0.9
2017-Aug-12 03:30S 33°05' E 152°13'0 0.8
2017-Aug-12 03:00S 33°05' E 152°13'0 0.7
2017-Aug-12 02:30S 33°05' E 152°13'0 0.6
2017-Aug-12 02:00S 33°05' E 152°12'0 0.9
2017-Aug-12 01:30S 33°05' E 152°12'0 0.8
2017-Aug-12 01:00S 33°06' E 152°11'0 0.6
2017-Aug-12 00:30S 33°06' E 152°11'0 0.7
2017-Aug-12 00:00S 33°05' E 152°11'1 0.9
2017-Aug-11 23:24S 33°05' E 152°10'0 0.8
2017-Aug-11 23:00S 33°05' E 152°10'1 1.0
2017-Aug-11 22:06S 33°04' E 152°09'0 0.9
2017-Aug-11 22:00S 33°04' E 152°09'0 0.9
2017-Aug-11 21:30S 33°04' E 152°08'0 1.0
2017-Aug-11 21:00S 33°04' E 152°08'0 0.8
2017-Aug-11 20:30S 33°03' E 152°08'0 0.8
2017-Aug-11 20:00S 33°03' E 152°07'0 0.5
2017-Aug-11 19:30S 33°03' E 152°07'0 0.7
2017-Aug-11 19:00S 33°03' E 152°07'0 0.6
2017-Aug-11 18:30S 33°03' E 152°06'0 0.5
2017-Aug-11 18:00S 33°03' E 152°06'0 0.5
2017-Aug-11 17:30S 33°03' E 152°06'0 0.6
2017-Aug-11 17:00S 33°03' E 152°06'0 0.7
2017-Aug-11 16:30S 33°03' E 152°05'0 0.7
2017-Aug-11 16:00S 33°02' E 152°05'0 0.8
2017-Aug-11 15:30S 33°02' E 152°04'0 0.8
2017-Aug-11 15:00S 33°02' E 152°04'0 0.9
2017-Aug-11 14:30S 33°02' E 152°03'1 1.2
2017-Aug-11 13:30S 33°02' E 152°02'3 5.4
2017-Aug-11 13:00S 33°01' E 151°59'1 1.2
2017-Aug-11 12:30S 33°01' E 151°58'1 1.4
2017-Aug-11 12:00S 33°01' E 151°59'1 1.5
2017-Aug-11 11:30S 33°01' E 151°60'1 1.3
2017-Aug-11 11:00S 33°01' E 152°01'1 1.3
2017-Aug-11 10:30S 33°01' E 152°02'1 1.3
2017-Aug-11 10:00S 33°01' E 152°02'1 1.1
2017-Aug-11 09:30S 33°01' E 152°03'1 1.1
2017-Aug-11 09:00S 33°01' E 152°04'1 1.2
2017-Aug-11 08:30S 33°01' E 152°04'1 1.5
2017-Aug-11 08:00S 33°01' E 152°05'1 2.1
2017-Aug-11 07:31S 33°00' E 152°06'2 4.6
2017-Aug-11 07:00S 32°58' E 152°07'0 0.8
2017-Aug-11 06:30S 32°58' E 152°08'0 0.8
2017-Aug-11 06:00S 32°59' E 152°08'0 0.8
2017-Aug-11 05:30S 32°59' E 152°08'0 0.8
2017-Aug-11 05:00S 32°59' E 152°08'0 0.9
2017-Aug-11 04:30S 32°60' E 152°07'0 0.8
2017-Aug-11 04:00S 32°60' E 152°07'0 0.9
2017-Aug-11 03:30S 32°60' E 152°06'0 0.7
2017-Aug-11 03:00S 32°59' E 152°06'0 0.7
2017-Aug-11 02:30S 32°59' E 152°06'0 0.5
2017-Aug-11 02:00S 32°59' E 152°06'0 0.3
2017-Aug-11 01:30S 32°59' E 152°05'0 0.3
2017-Aug-11 01:00S 32°59' E 152°06'0 0.3
2017-Aug-11 00:30S 32°59' E 152°06'0 0.3
2017-Aug-11 00:00S 32°59' E 152°05'0 0.4
2017-Aug-10 23:30S 32°59' E 152°05'0 0.6
2017-Aug-10 23:00S 32°60' E 152°05'0 0.7
2017-Aug-10 22:30S 32°60' E 152°05'1 1.0
2017-Aug-10 22:00S 33°00' E 152°04'1 1.0
2017-Aug-10 21:30S 33°00' E 152°03'1 1.9
2017-Aug-10 21:00S 32°60' E 152°02'3 5.9
2017-Aug-10 20:30S 32°58' E 151°59'4 7.8
2017-Aug-10 20:00S 32°55' E 152°02'612.3
2017-Aug-10 19:30S 32°53' E 152°09'713.5
2017-Aug-10 19:00S 32°50' E 152°16'713.3
2017-Aug-10 18:30S 32°46' E 152°23'713.3
2017-Aug-10 18:00S 32°43' E 152°30'713.1
2017-Aug-10 17:30S 32°40' E 152°37'713.4
2017-Aug-10 17:00S 32°37' E 152°44'713.0
2017-Aug-10 16:31S 32°33' E 152°50'713.9
2017-Aug-10 16:00S 32°26' E 152°53'713.9
2017-Aug-10 15:30S 32°20' E 152°55'713.5
2017-Aug-10 14:59S 32°13' E 152°57'1813.6
2017-Aug-10 13:39S 31°56' E 153°04'414.4
2017-Aug-10 13:23S 31°52' E 153°06'614.9
2017-Aug-10 13:00S 31°47' E 153°08'915.3
2017-Aug-10 12:24S 31°38' E 153°11'715.1
2017-Aug-10 11:57S 31°32' E 153°14'  

Dump ship's entire track history